Time;durP1;ratioP1;P1;durP2;ratioP2;P2;SDS_P1;SDS_P2;PMS_P1;PMS_P2;Temp;Humidity;BMP_temperature;BMP_pressure;BME280_temperature;BME280_humidity;BME280_pressure;Samples;Min_cycle;Max_cycle;Signal;HPM_P1;HPM_P2
2022/03/02 00:01:12;;;;;;;19.23;10.77;;;;;;;8.90;51.24;102551.53;5102853;28;20078;-65
2022/03/02 00:03:40;;;;;;;17.63;10.48;;;;;;;8.89;51.12;102549.03;5096261;28;20052;-65
2022/03/02 00:06:08;;;;;;;17.92;11.07;;;;;;;8.87;51.60;102543.84;5092185;28;20066;-65
2022/03/02 00:08:36;;;;;;;17.73;9.93;;;;;;;8.86;51.05;102549.38;5102581;28;20059;-65
2022/03/02 00:11:05;;;;;;;19.40;9.98;;;;;;;8.84;50.38;102551.38;5102348;28;20071;-65
2022/03/02 00:13:33;;;;;;;19.70;10.50;;;;;;;8.82;50.77;102548.88;5097564;28;20051;-65
2022/03/02 00:16:01;;;;;;;19.27;10.95;;;;;;;8.81;50.27;102555.25;5097984;28;20076;-65
2022/03/02 00:18:29;;;;;;;18.13;11.23;;;;;;;8.79;50.51;102550.03;5090212;28;20079;-65
2022/03/02 00:20:57;;;;;;;19.75;11.02;;;;;;;8.78;51.27;102551.06;5101196;28;20185;-65
2022/03/02 00:23:24;;;;;;;14.88;10.07;;;;;;;8.78;50.79;102552.91;5095381;28;20091;-65
2022/03/02 00:25:53;;;;;;;17.13;9.75;;;;;;;8.77;50.14;102551.22;5101504;28;20059;-65
2022/03/02 00:28:23;;;;;;;18.98;10.63;;;;;;;8.75;49.88;102553.22;5086723;28;20075;-65
2022/03/02 00:30:51;;;;;;;17.63;10.82;;;;;;;8.73;50.21;102553.41;5103619;28;20108;-65
2022/03/02 00:33:19;;;;;;;17.65;10.85;;;;;;;8.73;49.50;102560.59;5103029;28;20087;-66
2022/03/02 00:35:47;;;;;;;20.42;11.23;;;;;;;8.70;50.08;102555.56;5097171;28;20079;-65
2022/03/02 00:38:15;;;;;;;17.38;10.50;;;;;;;8.68;49.65;102563.78;5089620;28;20057;-66
2022/03/02 00:40:43;;;;;;;21.20;10.65;;;;;;;8.66;50.04;102554.25;5099626;28;20072;-65
2022/03/02 00:43:11;;;;;;;18.27;10.90;;;;;;;8.66;50.24;102557.78;5099838;28;20082;-65
2022/03/02 00:45:40;;;;;;;25.98;11.45;;;;;;;8.62;49.58;102556.44;5101127;28;20075;-65
2022/03/02 00:48:08;;;;;;;17.90;10.77;;;;;;;8.61;49.55;102553.94;5099759;28;20449;-65
2022/03/02 00:50:37;;;;;;;21.33;12.07;;;;;;;8.62;49.44;102552.94;5088954;28;20047;-63
2022/03/02 00:53:07;;;;;;;15.38;10.35;;;;;;;8.59;49.34;102538.03;5102333;28;20068;-65
2022/03/02 00:55:36;;;;;;;19.00;10.77;;;;;;;8.58;49.60;102551.59;5100741;28;20082;-65
2022/03/02 00:58:05;;;;;;;19.17;11.65;;;;;;;8.57;49.40;102553.44;5102449;28;20071;-65
2022/03/02 01:00:33;;;;;;;16.10;10.30;;;;;;;8.54;49.43;102551.06;5101736;28;20048;-65
2022/03/02 01:03:02;;;;;;;17.10;10.27;;;;;;;8.54;49.30;102545.72;5101303;28;20115;-65
2022/03/02 01:05:30;;;;;;;19.63;11.20;;;;;;;8.53;50.02;102543.22;5097639;28;20112;-65
2022/03/02 01:07:58;;;;;;;16.85;10.60;;;;;;;8.52;49.57;102546.88;5101147;28;20048;-65
2022/03/02 01:10:26;;;;;;;16.85;10.60;;;;;;;8.53;49.43;102540.53;5098323;28;20048;-65
2022/03/02 01:12:53;;;;;;;20.88;10.98;;;;;;;8.52;49.92;102538.84;5101803;28;20044;-66
2022/03/02 01:15:21;;;;;;;17.67;11.02;;;;;;;8.52;49.57;102523.63;5102323;28;20056;-65
2022/03/02 01:17:49;;;;;;;18.23;11.40;;;;;;;8.52;50.80;102526.28;5096134;28;20139;-66
2022/03/02 01:20:18;;;;;;;17.40;10.63;;;;;;;8.51;50.35;102534.50;5097712;28;21266;-66
2022/03/02 01:22:46;;;;;;;17.92;10.32;;;;;;;8.51;49.61;102531.81;5101338;28;20076;-66
2022/03/02 01:25:14;;;;;;;19.45;11.18;;;;;;;8.50;49.11;102524.78;5101040;28;20056;-66
2022/03/02 01:27:42;;;;;;;16.80;11.07;;;;;;;8.48;49.55;102525.78;5091769;28;20059;-66
2022/03/02 01:30:10;;;;;;;16.50;11.00;;;;;;;8.48;49.88;102522.28;5099326;28;20102;-66
2022/03/02 01:32:38;;;;;;;19.45;10.90;;;;;;;8.46;49.61;102522.44;5101564;28;20083;-66
2022/03/02 01:35:07;;;;;;;18.02;11.52;;;;;;;8.47;50.35;102515.22;5099272;28;20047;-66
2022/03/02 01:37:36;;;;;;;17.45;10.23;;;;;;;8.45;50.27;102510.03;5101321;28;20599;-66
2022/03/02 01:40:04;;;;;;;17.27;10.73;;;;;;;8.44;50.32;102511.06;5099488;28;20059;-65
2022/03/02 01:42:32;;;;;;;16.45;9.63;;;;;;;8.43;49.66;102503.19;5097755;28;20105;-66
2022/03/02 01:45:01;;;;;;;20.95;12.05;;;;;;;8.40;50.08;102506.19;5101211;28;20072;-66
2022/03/02 01:47:29;;;;;;;18.30;10.88;;;;;;;8.35;49.02;102498.66;5095190;28;20477;-66
2022/03/02 01:49:57;;;;;;;21.67;11.15;;;;;;;8.36;49.16;102500.31;5099845;28;20076;-66
2022/03/02 01:52:25;;;;;;;17.70;11.13;;;;;;;8.36;49.84;102500.31;5099064;28;20078;-66
2022/03/02 01:54:54;;;;;;;17.52;11.50;;;;;;;8.34;49.70;102501.50;5102059;28;20059;-65
2022/03/02 01:57:21;;;;;;;18.08;11.13;;;;;;;8.33;49.90;102499.81;5103597;28;20044;-66
2022/03/02 01:59:49;;;;;;;18.73;10.55;;;;;;;8.19;50.15;102481.69;5105130;28;20082;-66
2022/03/02 02:02:17;;;;;;;16.45;10.13;;;;;;;8.31;50.06;102499.97;5103105;28;20079;-65
2022/03/02 02:04:45;;;;;;;16.92;9.75;;;;;;;8.30;49.53;102500.13;5104370;28;20048;-67
2022/03/02 02:07:13;;;;;;;18.27;11.75;;;;;;;8.29;49.46;102493.94;5104933;28;20469;-66
2022/03/02 02:09:41;;;;;;;18.58;10.88;;;;;;;8.28;49.90;102502.13;5093178;28;20112;-66
2022/03/02 02:12:10;;;;;;;20.40;11.27;;;;;;;8.25;49.92;102499.78;5104513;28;20051;-65
2022/03/02 02:14:38;;;;;;;18.30;10.63;;;;;;;8.03;49.63;102463.78;5105481;28;20084;-65
2022/03/02 02:17:06;;;;;;;18.50;11.68;;;;;;;8.26;50.37;102488.06;5105584;28;20048;-67
2022/03/02 02:19:33;;;;;;;18.33;11.20;;;;;;;8.24;49.90;102482.03;5103336;28;20078;-65
2022/03/02 02:22:03;;;;;;;16.75;11.10;;;;;;;8.23;49.85;102480.38;5104361;28;20083;-66
2022/03/02 02:24:30;;;;;;;21.42;11.15;;;;;;;8.21;49.74;102483.22;5105336;28;20516;-67
2022/03/02 02:26:58;;;;;;;16.95;10.63;;;;;;;8.20;49.87;102481.53;5104478;28;20131;-65
2022/03/02 02:29:29;;;;;;;18.70;10.60;;;;;;;8.20;49.43;102486.06;5097957;28;20078;-64
2022/03/02 02:31:57;;;;;;;17.17;9.80;;;;;;;8.19;49.65;102477.19;5104605;28;20051;-66
2022/03/02 02:34:25;;;;;;;16.77;11.20;;;;;;;8.16;49.40;102475.69;5104157;28;20048;-65
2022/03/02 02:36:53;;;;;;;20.30;11.02;;;;;;;8.16;49.89;102464.97;5101820;28;20090;-65
2022/03/02 02:39:25;;;;;;;17.00;10.43;;;;;;;8.15;49.43;102470.47;5104604;28;20051;-66
2022/03/02 02:41:52;;;;;;;18.38;10.68;;;;;;;8.14;49.09;102469.66;5100729;28;20076;-66
2022/03/02 02:44:20;;;;;;;19.95;11.93;;;;;;;8.12;49.94;102463.63;5104823;28;20083;-66
2022/03/02 02:46:48;;;;;;;18.63;10.63;;;;;;;8.12;49.53;102455.59;5104452;28;20057;-66
2022/03/02 02:49:16;;;;;;;19.65;11.02;;;;;;;8.11;49.33;102461.09;5103798;28;20124;-66
2022/03/02 02:51:43;;;;;;;19.98;11.25;;;;;;;8.10;49.58;102465.63;5103153;28;20079;-66
2022/03/02 02:54:11;;;;;;;19.80;12.05;;;;;;;8.09;48.98;102455.09;5104923;28;20044;-68
2022/03/02 02:56:40;;;;;;;19.63;10.63;;;;;;;7.95;49.55;102437.84;5104288;28;20107;-66
2022/03/02 02:59:08;;;;;;;17.60;10.57;;;;;;;8.09;49.07;102468.47;5099089;28;20075;-66
2022/03/02 03:01:36;;;;;;;20.20;11.25;;;;;;;8.07;48.96;102465.13;5100405;28;20040;-66
2022/03/02 03:04:06;;;;;;;20.77;10.48;;;;;;;8.06;49.09;102468.81;5101536;28;20330;-66
2022/03/02 03:06:34;;;;;;;21.27;11.63;;;;;;;8.05;49.01;102462.59;5096826;28;20127;-66
2022/03/02 03:09:01;;;;;;;19.05;11.10;;;;;;;8.05;49.55;102472.47;5103203;28;20078;-66
2022/03/02 03:11:29;;;;;;;20.88;10.25;;;;;;;8.05;48.93;102472.47;5097577;28;20127;-66
2022/03/02 03:13:58;;;;;;;17.55;10.18;;;;;;;8.04;49.57;102458.25;5104690;28;20051;-66
2022/03/02 03:16:26;;;;;;;18.42;10.38;;;;;;;8.04;49.44;102460.09;5099538;28;20135;-65
2022/03/02 03:18:54;;;;;;;18.05;10.00;;;;;;;8.03;49.16;102466.44;5104171;28;20105;-67
2022/03/02 03:21:21;;;;;;;19.02;10.75;;;;;;;8.02;49.33;102460.25;5100486;28;20623;-66
2022/03/02 03:23:49;;;;;;;19.70;11.15;;;;;;;8.02;49.45;102464.78;5103705;28;20189;-67
2022/03/02 03:26:17;;;;;;;18.15;11.18;;;;;;;8.00;50.13;102458.75;5103901;28;20275;-66
2022/03/02 03:28:45;;;;;;;18.23;11.38;;;;;;;7.99;49.69;102457.91;5103327;28;20080;-66
2022/03/02 03:31:14;;;;;;;19.50;10.40;;;;;;;7.95;49.35;102455.72;5095047;28;20142;-65
2022/03/02 03:33:42;;;;;;;19.92;10.32;;;;;;;7.96;48.98;102455.56;5103365;28;20078;-65
2022/03/02 03:36:09;;;;;;;18.38;10.77;;;;;;;7.96;49.24;102454.72;5102891;28;20071;-65
2022/03/02 03:38:37;;;;;;;17.20;11.10;;;;;;;7.94;48.85;102457.56;5101780;28;20066;-65
2022/03/02 03:41:05;;;;;;;18.27;11.15;;;;;;;7.93;48.99;102453.22;5103722;28;20048;-65
2022/03/02 03:43:33;;;;;;;18.52;11.40;;;;;;;7.92;49.44;102453.38;5099701;28;20119;-65
2022/03/02 03:46:01;;;;;;;16.58;9.98;;;;;;;7.91;49.09;102452.53;5103942;28;20083;-65
2022/03/02 03:48:30;;;;;;;18.08;10.95;;;;;;;7.90;48.81;102456.22;5103032;28;20504;-66
2022/03/02 03:50:58;;;;;;;19.63;11.05;;;;;;;7.90;48.97;102447.34;5089684;28;20473;-64
2022/03/02 03:53:26;;;;;;;19.20;11.15;;;;;;;7.88;48.90;102452.03;5102556;28;20095;-64
2022/03/02 03:55:53;;;;;;;19.33;11.40;;;;;;;7.88;48.91;102449.38;5102682;28;20120;-66
2022/03/02 03:58:21;;;;;;;20.73;10.40;;;;;;;7.87;49.59;102445.00;5103568;28;20067;-65
2022/03/02 04:00:49;;;;;;;20.02;10.95;;;;;;;7.86;48.80;102449.53;5103147;28;20067;-66
2022/03/02 04:03:17;;;;;;;15.57;9.60;;;;;;;7.86;49.63;102446.00;5096300;28;20040;-65
2022/03/02 04:05:46;;;;;;;15.90;10.25;;;;;;;7.83;48.88;102445.34;5094777;28;20131;-67
2022/03/02 04:08:15;;;;;;;18.55;11.13;;;;;;;7.81;49.52;102436.63;5102768;28;20103;-65
2022/03/02 04:10:45;;;;;;;19.50;10.95;;;;;;;7.82;49.20;102440.16;5102593;28;20173;-65
2022/03/02 04:13:12;;;;;;;18.52;11.15;;;;;;;7.81;49.43;102443.84;5100990;28;20075;-65
2022/03/02 04:15:40;;;;;;;19.08;10.50;;;;;;;7.80;49.52;102439.47;5103423;28;20051;-65
2022/03/02 04:18:08;;;;;;;18.63;10.35;;;;;;;7.79;48.99;102435.97;5102600;28;20111;-65
2022/03/02 04:20:36;;;;;;;15.80;10.55;;;;;;;7.68;49.24;102409.53;5102041;28;20048;-64
2022/03/02 04:23:08;;;;;;;21.10;11.07;;;;;;;7.78;48.84;102423.59;5097755;28;20075;-65
2022/03/02 04:25:36;;;;;;;15.60;9.80;;;;;;;7.80;49.88;102423.41;5102581;28;20048;-65
2022/03/02 04:28:04;;;;;;;19.17;10.77;;;;;;;7.78;49.18;102414.72;5099099;28;20072;-66
2022/03/02 04:30:32;;;;;;;16.95;10.18;;;;;;;7.72;48.88;102405.50;5100338;28;20055;-66
2022/03/02 04:33:00;;;;;;;15.13;10.57;;;;;;;7.65;48.88;102390.28;5102892;28;20132;-66
2022/03/02 04:35:28;;;;;;;16.42;10.38;;;;;;;7.77;49.33;102410.38;5102526;28;20449;-66
2022/03/02 04:37:56;;;;;;;14.57;9.98;;;;;;;7.75;49.25;102410.53;5100663;28;20079;-65
2022/03/02 04:40:25;;;;;;;17.35;9.70;;;;;;;7.75;49.07;102402.50;5101277;28;20055;-65
2022/03/02 04:42:54;;;;;;;16.33;9.70;;;;;;;7.76;49.62;102406.84;5102496;28;20519;-65
2022/03/02 04:45:25;;;;;;;20.98;11.55;;;;;;;7.76;48.85;102411.38;5089532;28;20052;-66
2022/03/02 04:47:53;;;;;;;17.35;9.45;;;;;;;7.73;48.81;102401.84;5102190;28;20052;-64
2022/03/02 04:50:22;;;;;;;13.98;9.63;;;;;;;7.74;49.42;102398.16;5097045;28;20059;-65
2022/03/02 04:52:51;;;;;;;14.40;9.35;;;;;;;7.73;49.50;102407.19;5098734;28;20040;-66
2022/03/02 04:55:19;;;;;;;14.85;9.95;;;;;;;7.73;49.01;102401.00;5102217;28;20044;-64
2022/03/02 04:57:50;;;;;;;13.75;8.93;;;;;;;7.72;48.41;102399.31;5102033;28;20048;-65
2022/03/02 05:00:19;;;;;;;17.45;10.02;;;;;;;7.72;48.69;102402.00;5099124;28;20056;-65
2022/03/02 05:02:47;;;;;;;15.77;9.35;;;;;;;7.66;48.84;102390.13;5097805;28;20504;-66
2022/03/02 05:05:17;;;;;;;16.15;9.80;;;;;;;7.70;48.21;102398.66;5102173;28;20044;-66
2022/03/02 05:07:46;;;;;;;14.27;8.75;;;;;;;7.69;48.57;102394.31;5101545;28;20056;-66
2022/03/02 05:10:16;;;;;;;15.80;9.35;;;;;;;7.66;48.84;102389.28;5099721;28;20052;-66
2022/03/02 05:12:44;;;;;;;16.42;9.60;;;;;;;7.66;48.72;102390.13;5097514;28;20139;-66
2022/03/02 05:15:15;;;;;;;14.85;9.35;;;;;;;7.64;48.78;102388.59;5102322;28;20040;-65
2022/03/02 05:17:45;;;;;;;14.00;8.23;;;;;;;7.65;48.46;102395.63;5096649;28;20048;-63
2022/03/02 05:20:14;;;;;;;15.00;8.60;;;;;;;7.64;48.79;102388.59;5097439;28;20056;-66
2022/03/02 05:22:42;;;;;;;15.00;9.15;;;;;;;7.63;49.00;102387.78;5092713;28;20048;-66
2022/03/02 05:25:13;;;;;;;18.38;9.48;;;;;;;7.60;48.61;102376.56;5101014;28;20159;-66
2022/03/02 05:27:41;;;;;;;14.45;9.05;;;;;;;7.60;48.53;102379.22;5101053;28;20044;-65
2022/03/02 05:30:16;;;;;;;18.80;8.82;;;;;;;7.60;48.75;102390.78;5088852;28;20050;-65
2022/03/02 05:32:44;;;;;;;15.45;8.55;;;;;;;7.59;49.11;102388.25;5105871;28;20051;-66
2022/03/02 05:35:12;;;;;;;14.65;9.57;;;;;;;7.59;48.28;102391.78;5105377;28;20078;-66
2022/03/02 05:37:42;;;;;;;16.85;8.90;;;;;;;7.56;48.42;102386.75;5098656;28;20084;-67
2022/03/02 05:40:14;;;;;;;14.55;8.98;;;;;;;7.57;48.56;102387.59;5103985;28;20051;-65
2022/03/02 05:42:42;;;;;;;14.82;9.45;;;;;;;7.56;48.47;102384.06;5105385;28;20059;-65
2022/03/02 05:45:11;;;;;;;16.85;9.00;;;;;;;7.57;48.72;102382.25;5095522;28;20075;-66
2022/03/02 05:47:41;;;;;;;14.07;8.57;;;;;;;7.55;49.07;102386.91;5105486;28;20567;-65
2022/03/02 05:50:09;;;;;;;15.48;8.80;;;;;;;7.53;48.13;102379.06;5105517;28;20048;-65
2022/03/02 05:52:38;;;;;;;13.75;7.97;;;;;;;7.51;48.71;102379.22;5093806;28;20048;-65
2022/03/02 05:55:06;;;;;;;14.98;8.93;;;;;;;7.49;48.35;102377.72;5101522;28;20075;-65
2022/03/02 05:57:34;;;;;;;15.73;9.93;;;;;;;7.52;49.06;102382.72;5103918;28;20048;-66
2022/03/02 06:00:03;;;;;;;13.30;8.18;;;;;;;7.48;48.89;102376.88;5101715;28;20066;-65
2022/03/02 06:02:32;;;;;;;13.93;9.35;;;;;;;7.49;48.89;102375.88;5099318;28;20051;-67
2022/03/02 06:05:01;;;;;;;17.95;8.60;;;;;;;7.50;49.09;102379.38;5104037;28;20048;-66
2022/03/02 06:07:29;;;;;;;16.30;8.45;;;;;;;7.49;48.87;102377.72;5101789;28;20108;-66
2022/03/02 06:09:57;;;;;;;15.95;9.35;;;;;;;7.50;48.97;102384.72;5095714;28;20127;-67
2022/03/02 06:12:25;;;;;;;15.27;8.98;;;;;;;7.48;49.32;102384.06;5103925;28;20327;-67
2022/03/02 06:14:54;;;;;;;13.70;8.85;;;;;;;7.46;48.51;102378.88;5105168;28;20072;-66
2022/03/02 06:17:22;;;;;;;14.55;8.77;;;;;;;7.47;48.93;102383.22;5088562;28;20099;-66
2022/03/02 06:19:50;;;;;;;17.50;9.23;;;;;;;7.46;48.63;102380.72;5103974;28;20059;-67
2022/03/02 06:22:24;;;;;;;12.63;7.70;;;;;;;7.44;48.92;102380.88;5103809;28;20059;-65
2022/03/02 06:24:52;;;;;;;19.08;9.43;;;;;;;7.46;48.79;102391.41;5102961;28;20051;-66
2022/03/02 06:27:21;;;;;;;15.23;8.38;;;;;;;7.44;49.00;102388.91;5103952;28;20330;-65
2022/03/02 06:29:49;;;;;;;14.93;9.00;;;;;;;7.44;49.07;102390.72;5102137;28;20126;-65
2022/03/02 06:32:17;;;;;;;15.02;8.73;;;;;;;7.45;48.65;102389.72;5102030;28;20505;-69
2022/03/02 06:34:45;;;;;;;13.35;7.30;;;;;;;7.44;48.19;102393.41;5104704;28;20051;-67
2022/03/02 06:37:12;;;;;;;16.40;8.15;;;;;;;7.43;48.88;102389.91;5102157;28;20079;-66
2022/03/02 06:39:42;;;;;;;13.98;8.50;;;;;;;7.44;48.40;102390.72;5103075;28;20070;-66
2022/03/02 06:42:18;;;;;;;13.68;8.45;;;;;;;7.37;48.21;102387.88;5104616;28;20080;-66
2022/03/02 06:44:53;;;;;;;13.48;7.85;;;;;;;7.42;48.74;102395.41;5096807;28;20166;-64
2022/03/02 06:47:26;;;;;;;12.27;7.55;;;;;;;7.43;48.65;102392.56;5100661;28;20391;-66
2022/03/02 06:50:03;;;;;;;14.40;8.18;;;;;;;7.42;48.58;102393.56;5095213;28;20075;-65
2022/03/02 06:52:33;;;;;;;;;;;;;;;7.41;48.66;102396.41;5098051;28;20108;-66
2022/03/02 06:55:06;;;;;;;13.20;8.15;;;;;;;7.40;48.48;102400.09;5096654;28;19959;-65
2022/03/02 06:57:34;;;;;;;16.65;9.50;;;;;;;7.37;48.84;102395.91;5098267;28;20048;-66
2022/03/02 07:00:08;;;;;;;13.68;8.85;;;;;;;7.39;48.55;102403.75;5098305;28;20051;-66
2022/03/02 07:02:40;;;;;;;12.52;8.45;;;;;;;7.37;48.74;102406.59;5093105;28;20509;-66
2022/03/02 07:05:09;;;;;;;18.38;9.20;;;;;;;7.37;48.65;102406.59;5095304;28;20039;-66
2022/03/02 07:07:37;;;;;;;13.43;7.95;;;;;;;7.35;48.23;102407.75;5101878;28;20062;-67
2022/03/02 07:10:09;;;;;;;13.63;7.35;;;;;;;7.32;48.24;102400.06;5098348;28;20087;-66
2022/03/02 07:12:37;;;;;;;14.68;8.73;;;;;;;7.36;48.67;102407.59;5094655;28;20142;-67
2022/03/02 07:15:07;;;;;;;12.93;7.90;;;;;;;7.33;48.59;102413.28;5098201;28;20067;-66
2022/03/02 07:17:35;;;;;;;17.17;8.13;;;;;;;7.31;48.48;102407.25;5101352;28;20128;-66
2022/03/02 07:20:06;;;;;;;13.80;8.07;;;;;;;7.32;48.22;102408.91;5097901;28;20051;-67
2022/03/02 07:22:36;;;;;;;15.40;8.40;;;;;;;7.33;48.72;102410.59;5094564;28;20262;-65
2022/03/02 07:25:08;;;;;;;13.27;8.13;;;;;;;7.32;48.50;102408.09;5099358;28;20073;-66
2022/03/02 07:27:38;;;;;;;14.57;8.25;;;;;;;7.31;48.46;102404.56;5097428;28;20774;-67
2022/03/02 07:30:08;;;;;;;14.20;8.68;;;;;;;7.33;48.44;102413.28;5096586;28;20096;-66
2022/03/02 07:32:37;;;;;;;14.48;8.35;;;;;;;7.24;49.13;102403.53;5096651;28;20048;-67
2022/03/02 07:35:07;;;;;;;15.30;8.18;;;;;;;7.31;48.46;102411.75;5098258;28;20413;-67
2022/03/02 07:37:34;;;;;;;15.98;7.88;;;;;;;7.30;48.31;102416.25;5097942;28;20055;-69
2022/03/02 07:40:04;;;;;;;11.93;7.28;;;;;;;7.31;49.18;102414.44;5098430;28;20074;-68
2022/03/02 07:42:34;;;;;;;15.70;7.97;;;;;;;7.29;48.64;102411.91;5095423;28;20099;-65
2022/03/02 07:45:02;;;;;;;12.85;8.10;;;;;;;7.31;48.54;102411.75;5092863;28;20118;-66
2022/03/02 07:47:30;;;;;;;12.57;7.88;;;;;;;7.29;48.47;102408.41;5098152;28;20080;-67
2022/03/02 07:49:58;;;;;;;15.30;8.35;;;;;;;7.25;46.48;102409.72;5100782;28;20070;-66
2022/03/02 07:52:28;;;;;;;15.48;8.90;;;;;;;7.09;45.76;102397.13;5099044;28;20079;-66
2022/03/02 07:55:00;;;;;;;24.60;9.63;;;;;;;7.00;45.85;102398.94;5101322;28;20067;-68
2022/03/02 07:57:30;;;;;;;23.40;8.52;;;;;;;7.06;46.98;102400.13;5101889;28;20069;-68
2022/03/02 08:00:00;;;;;;;20.55;8.85;;;;;;;7.05;46.91;102401.13;5101213;28;20036;-69
2022/03/02 08:02:31;;;;;;;14.60;8.82;;;;;;;7.05;47.36;102401.97;5099825;28;20058;-69
2022/03/02 08:05:01;;;;;;;17.73;8.70;;;;;;;7.08;47.52;102390.94;5103626;28;20112;-68
2022/03/02 08:07:29;;;;;;;15.27;8.32;;;;;;;7.10;47.56;102396.97;5098566;28;20075;-69
2022/03/02 08:09:58;;;;;;;12.15;7.28;;;;;;;7.11;48.09;102395.97;5100351;28;20668;-68
2022/03/02 08:12:25;;;;;;;17.67;8.18;;;;;;;7.14;47.95;102389.47;5100023;28;20543;-68
2022/03/02 08:14:53;;;;;;;14.40;8.13;;;;;;;7.13;47.83;102388.63;5096385;28;20043;-68
2022/03/02 08:17:22;;;;;;;15.50;8.40;;;;;;;7.08;47.56;102377.59;5097608;28;20045;-68
2022/03/02 08:19:50;;;;;;;12.90;7.47;;;;;;;7.16;48.20;102392.81;5094120;28;20078;-68
2022/03/02 08:22:19;;;;;;;13.32;7.50;;;;;;;7.16;48.13;102390.97;5093518;28;20044;-68
2022/03/02 08:24:54;;;;;;;17.13;8.73;;;;;;;7.16;48.42;102399.00;5097817;28;20055;-68
2022/03/02 08:27:22;;;;;;;12.45;7.75;;;;;;;7.20;48.53;102394.16;5100943;28;20071;-68
2022/03/02 08:29:54;;;;;;;12.07;7.47;;;;;;;7.10;48.76;102372.06;5100343;28;20083;-68
2022/03/02 08:32:24;;;;;;;15.27;7.50;;;;;;;7.24;48.78;102389.34;5102331;28;20732;-68
2022/03/02 08:34:52;;;;;;;12.10;7.47;;;;;;;7.26;48.57;102385.50;5099996;28;20058;-68
2022/03/02 08:37:21;;;;;;;11.88;7.38;;;;;;;7.25;48.51;102377.63;5100057;28;20286;-68
2022/03/02 08:39:49;;;;;;;13.32;8.02;;;;;;;7.25;48.35;102375.81;5096984;28;20036;-68
2022/03/02 08:42:17;;;;;;;10.98;6.68;;;;;;;7.28;48.94;102385.34;5097790;28;20044;-68
2022/03/02 08:44:46;;;;;;;11.73;7.45;;;;;;;7.27;48.54;102386.34;5099290;28;20170;-68
2022/03/02 08:47:15;;;;;;;11.95;7.35;;;;;;;7.26;48.72;102380.16;5098871;28;20105;-68
2022/03/02 08:49:45;;;;;;;12.00;7.50;;;;;;;7.37;48.36;102384.38;5098274;28;20048;-68
2022/03/02 08:52:13;;;;;;;11.18;7.15;;;;;;;7.46;48.21;102378.03;5097352;28;20044;-67
2022/03/02 08:54:46;;;;;;;15.60;6.88;;;;;;;7.63;47.98;102381.59;5101967;28;20040;-66
2022/03/02 08:57:15;;;;;;;13.02;7.38;;;;;;;7.68;47.92;102366.69;5100402;28;20052;-66
2022/03/02 08:59:44;;;;;;;12.32;7.38;;;;;;;7.89;47.31;102381.44;5096449;28;20080;-67
2022/03/02 09:02:20;;;;;;;12.15;7.05;;;;;;;8.07;47.12;102379.44;5100459;28;20044;-66
2022/03/02 09:04:50;;;;;;;13.32;7.38;;;;;;;8.21;47.52;102377.94;5101158;28;20067;-67
2022/03/02 09:07:19;;;;;;;11.65;7.20;;;;;;;8.35;46.47;102371.91;5097356;28;20525;-67
2022/03/02 09:09:47;;;;;;;10.90;6.90;;;;;;;8.48;46.67;102373.06;5097653;28;20043;-66
2022/03/02 09:12:16;;;;;;;11.32;7.05;;;;;;;8.64;45.84;102368.66;5098474;28;20111;-66
2022/03/02 09:14:44;;;;;;;12.10;6.93;;;;;;;8.74;45.74;102367.44;5101020;28;20059;-67
2022/03/02 09:17:12;;;;;;;12.55;7.05;;;;;;;8.84;45.89;102369.09;5097442;28;20043;-68
2022/03/02 09:19:41;;;;;;;10.98;6.68;;;;;;;8.78;45.45;102341.97;5097913;28;20255;-67
2022/03/02 09:22:10;;;;;;;11.43;6.90;;;;;;;8.99;45.29;102359.31;5097410;28;20163;-67
2022/03/02 09:24:38;;;;;;;13.68;8.30;;;;;;;9.04;45.63;102363.13;5099872;28;20075;-67
2022/03/02 09:27:08;;;;;;;11.73;7.22;;;;;;;9.05;45.70;102361.28;5099073;28;20071;-67
2022/03/02 09:29:38;;;;;;;10.35;7.03;;;;;;;8.97;46.57;102359.47;5098303;28;20048;-67
2022/03/02 09:32:06;;;;;;;10.70;7.15;;;;;;;8.85;45.60;102350.16;5095760;28;20060;-67
2022/03/02 09:34:35;;;;;;;12.73;7.20;;;;;;;8.75;47.05;102360.22;5097077;28;20162;-67
2022/03/02 09:37:04;;;;;;;10.35;6.68;;;;;;;8.68;46.97;102351.22;5097335;28;20040;-67
2022/03/02 09:39:35;;;;;;;10.88;6.47;;;;;;;8.60;47.45;102356.63;5097811;28;20607;-68
2022/03/02 09:42:05;;;;;;;11.93;6.82;;;;;;;8.32;48.16;102316.81;5100620;28;20098;-66
2022/03/02 09:44:40;;;;;;;13.20;6.90;;;;;;;8.49;47.34;102347.09;5098323;28;20051;-68
2022/03/02 09:47:10;;;;;;;12.60;6.80;;;;;;;8.30;48.52;102323.34;5101755;28;20054;-68
2022/03/02 09:49:46;;;;;;;12.52;6.50;;;;;;;8.41;48.26;102349.81;5098843;28;20052;-67
2022/03/02 09:52:18;;;;;;;12.43;6.95;;;;;;;8.38;48.52;102342.09;5101230;28;20080;-67
2022/03/02 09:54:52;;;;;;;11.02;6.28;;;;;;;8.36;48.58;102334.25;5100532;28;20096;-64
2022/03/02 09:57:21;;;;;;;9.77;6.55;;;;;;;8.36;48.29;102341.44;5098252;28;20067;-67
2022/03/02 09:59:51;;;;;;;11.57;6.43;;;;;;;8.31;45.14;102338.41;5101058;28;20072;-65
2022/03/02 10:02:31;;;;;;;12.80;7.55;;;;;;;8.35;45.63;102337.09;5095492;28;20044;-68
2022/03/02 10:05:05;;;;;;;11.88;7.60;;;;;;;8.40;45.53;102332.91;5099609;28;20044;-68
2022/03/02 10:07:37;;;;;;;10.93;7.18;;;;;;;8.47;47.14;102335.72;5100595;28;20067;-68
2022/03/02 10:10:10;;;;;;;13.40;6.95;;;;;;;8.50;45.76;102337.22;5099543;28;20059;-68
2022/03/02 10:12:38;;;;;;;9.55;5.88;;;;;;;8.52;46.19;102337.88;5096190;28;20048;-70
2022/03/02 10:15:09;;;;;;;11.38;6.50;;;;;;;8.58;47.31;102334.53;5099122;28;20043;-68
2022/03/02 10:17:39;;;;;;;9.63;5.72;;;;;;;8.58;47.29;102338.03;5100313;28;20048;-69
2022/03/02 10:20:11;;;;;;;11.75;5.97;;;;;;;8.45;47.09;102319.81;5103627;28;20048;-68
2022/03/02 10:23:14;;;;;;;10.98;6.28;;;;;;;8.59;47.82;102325.47;5101690;28;20048;-68
2022/03/02 10:25:52;;;;;;;8.93;5.43;;;;;;;8.61;48.50;102334.19;5101991;28;20044;-66
2022/03/02 10:28:27;;;;;;;9.93;5.80;;;;;;;8.60;47.75;102330.66;5097456;28;20055;-68
2022/03/02 10:31:14;;;;;;;9.38;5.75;;;;;;;8.62;47.26;102323.28;5102528;28;20461;-69
2022/03/02 10:33:47;;;;;;;9.70;6.03;;;;;;;8.62;47.03;102328.66;5102778;28;20056;-67
2022/03/02 10:36:15;;;;;;;10.63;6.20;;;;;;;8.62;47.01;102325.97;5102754;28;20071;-67
2022/03/02 10:38:50;;;;;;;10.40;6.90;;;;;;;8.61;46.18;102329.66;5102871;28;20128;-67
2022/03/02 10:41:21;;;;;;;13.40;6.53;;;;;;;8.67;46.70;102328.09;5103355;28;20040;-67
2022/03/02 10:43:57;;;;;;;12.73;5.72;;;;;;;8.69;47.22;102323.41;5104450;28;20044;-67
2022/03/02 10:46:26;;;;;;;8.80;5.63;;;;;;;8.71;47.43;102330.25;5100264;28;20044;-69
2022/03/02 10:49:04;;;;;;;9.48;5.43;;;;;;;8.72;48.33;102326.56;5098190;28;20109;-68
2022/03/02 10:51:34;;;;;;;9.55;5.63;;;;;;;8.74;48.26;102319.19;5101336;28;20052;-68
2022/03/02 10:54:05;;;;;;;11.15;6.10;;;;;;;8.76;48.15;102316.34;5100496;28;20071;-67
2022/03/02 10:56:39;;;;;;;9.93;6.15;;;;;;;8.74;48.13;102318.34;5103814;28;20063;-68
2022/03/02 10:59:08;;;;;;;8.63;6.10;;;;;;;8.78;47.58;102317.84;5098661;28;20044;-64
2022/03/02 11:01:37;;;;;;;12.20;6.55;;;;;;;8.81;45.82;102327.38;5097011;28;20562;-68
2022/03/02 11:04:07;;;;;;;10.82;6.57;;;;;;;8.80;45.91;102315.81;5103103;28;20125;-69
2022/03/02 11:06:35;;;;;;;8.73;5.97;;;;;;;8.83;46.78;102320.00;5103429;28;20063;-68
2022/03/02 11:09:04;;;;;;;9.43;5.55;;;;;;;8.85;46.61;102312.59;5098960;28;20140;-68
2022/03/02 11:11:35;;;;;;;10.00;6.20;;;;;;;8.89;47.56;102315.78;5100459;28;20053;-68
2022/03/02 11:14:05;;;;;;;10.05;5.63;;;;;;;8.90;48.17;102302.19;5096345;28;20052;-68
2022/03/02 11:16:33;;;;;;;8.45;5.65;;;;;;;8.93;48.31;102298.34;5100827;28;20040;-68
2022/03/02 11:19:10;;;;;;;10.73;5.82;;;;;;;8.96;48.55;102301.50;5100862;28;20044;-67
2022/03/02 11:21:40;;;;;;;8.13;5.18;;;;;;;8.99;48.41;102294.94;5100056;28;20418;-67
2022/03/02 11:24:09;;;;;;;10.93;5.93;;;;;;;9.00;48.29;102292.09;5102676;28;20040;-68
2022/03/02 11:26:39;;;;;;;8.95;5.70;;;;;;;8.98;48.33;102280.69;5102024;28;20071;-68
2022/03/02 11:29:11;;;;;;;9.25;5.80;;;;;;;9.05;48.13;102283.50;5086222;28;20095;-68
2022/03/02 11:31:42;;;;;;;10.18;5.88;;;;;;;9.05;48.80;102278.16;5103168;28;20048;-68